sensor_id;sensor_type;location;lat;lon;timestamp;pressure;altitude;pressure_sealevel;temperature
70123;BMP280;57489;37.404;24.920;2023-02-15T00:02:36;101237.88;;;19.33
70123;BMP280;57489;37.404;24.920;2023-02-15T00:07:36;101233.16;;;19.30
70123;BMP280;57489;37.404;24.920;2023-02-15T00:12:37;101231.91;;;19.23
70123;BMP280;57489;37.404;24.920;2023-02-15T00:17:37;101230.31;;;19.22
70123;BMP280;57489;37.404;24.920;2023-02-15T00:22:38;101233.13;;;19.11
70123;BMP280;57489;37.404;24.920;2023-02-15T00:27:38;101234.72;;;19.13
70123;BMP280;57489;37.404;24.920;2023-02-15T00:32:39;101231.59;;;19.05
70123;BMP280;57489;37.404;24.920;2023-02-15T00:37:39;101229.50;;;19.02
70123;BMP280;57489;37.404;24.920;2023-02-15T00:42:39;101227.34;;;19.04
70123;BMP280;57489;37.404;24.920;2023-02-15T00:47:40;101224.47;;;19.01
70123;BMP280;57489;37.404;24.920;2023-02-15T00:52:40;101224.47;;;19.01
70123;BMP280;57489;37.404;24.920;2023-02-15T00:57:41;101224.84;;;18.94
70123;BMP280;57489;37.404;24.920;2023-02-15T01:02:41;101221.66;;;18.92
70123;BMP280;57489;37.404;24.920;2023-02-15T01:07:42;101224.09;;;18.89
70123;BMP280;57489;37.404;24.920;2023-02-15T01:12:42;101218.03;;;18.83
70123;BMP280;57489;37.404;24.920;2023-02-15T01:17:43;101227.09;;;18.82
70123;BMP280;57489;37.404;24.920;2023-02-15T01:22:43;101231.63;;;18.81
70123;BMP280;57489;37.404;24.920;2023-02-15T01:27:44;101229.81;;;18.77
70123;BMP280;57489;37.404;24.920;2023-02-15T01:32:45;101235.91;;;18.77
70123;BMP280;57489;37.404;24.920;2023-02-15T01:37:45;101233.91;;;18.69
70123;BMP280;57489;37.404;24.920;2023-02-15T01:42:50;101223.47;;;18.73
70123;BMP280;57489;37.404;24.920;2023-02-15T01:48:04;101228.56;;;18.69
70123;BMP280;57489;37.404;24.920;2023-02-15T01:58:14;101235.59;;;18.60
70123;BMP280;57489;37.404;24.920;2023-02-15T02:03:15;101233.47;;;18.62
70123;BMP280;57489;37.404;24.920;2023-02-15T02:08:16;101243.09;;;18.53
70123;BMP280;57489;37.404;24.920;2023-02-15T02:13:16;101242.78;;;18.59
70123;BMP280;57489;37.404;24.920;2023-02-15T02:18:59;101238.56;;;18.53
70123;BMP280;57489;37.404;24.920;2023-02-15T02:45:08;101258.38;;;18.42
70123;BMP280;57489;37.404;24.920;2023-02-15T02:50:14;101274.78;;;18.44
70123;BMP280;57489;37.404;24.920;2023-02-15T03:00:23;101273.31;;;18.33
70123;BMP280;57489;37.404;24.920;2023-02-15T03:05:27;101276.44;;;18.40
70123;BMP280;57489;37.404;24.920;2023-02-15T03:10:29;101275.94;;;18.38
70123;BMP280;57489;37.404;24.920;2023-02-15T03:15:33;101273.31;;;18.33
70123;BMP280;57489;37.404;24.920;2023-02-15T03:20:36;101288.75;;;18.31
70123;BMP280;57489;37.404;24.920;2023-02-15T03:25:40;101290.91;;;18.29
70123;BMP280;57489;37.404;24.920;2023-02-15T03:30:44;101287.66;;;18.32
70123;BMP280;57489;37.404;24.920;2023-02-15T03:35:52;101285.63;;;18.24
70123;BMP280;57489;37.404;24.920;2023-02-15T03:40:54;101295.72;;;18.22
70123;BMP280;57489;37.404;24.920;2023-02-15T03:46:01;101305.03;;;18.19
70123;BMP280;57489;37.404;24.920;2023-02-15T03:51:08;101312.44;;;18.22
70123;BMP280;57489;37.404;24.920;2023-02-15T03:56:12;101313.78;;;18.20
70123;BMP280;57489;37.404;24.920;2023-02-15T04:01:26;101315.44;;;18.16
70123;BMP280;57489;37.404;24.920;2023-02-15T04:06:27;101328.19;;;18.14
70123;BMP280;57489;37.404;24.920;2023-02-15T04:11:28;101331.91;;;18.13
70123;BMP280;57489;37.404;24.920;2023-02-15T04:16:28;101331.91;;;18.13
70123;BMP280;57489;37.404;24.920;2023-02-15T04:21:30;101321.88;;;18.04
70123;BMP280;57489;37.404;24.920;2023-02-15T04:26:30;101335.97;;;18.05
70123;BMP280;57489;37.404;24.920;2023-02-15T04:31:31;101320.81;;;18.05
70123;BMP280;57489;37.404;24.920;2023-02-15T04:36:31;101330.31;;;18.12
70123;BMP280;57489;37.404;24.920;2023-02-15T04:41:32;101340.16;;;18.11
70123;BMP280;57489;37.404;24.920;2023-02-15T04:46:34;101345.22;;;18.07
70123;BMP280;57489;37.404;24.920;2023-02-15T04:51:35;101354.25;;;18.06
70123;BMP280;57489;37.404;24.920;2023-02-15T04:56:35;101347.41;;;18.00
70123;BMP280;57489;37.404;24.920;2023-02-15T05:01:36;101350.13;;;17.90
70123;BMP280;57489;37.404;24.920;2023-02-15T05:06:36;101360.19;;;17.88
70123;BMP280;57489;37.404;24.920;2023-02-15T05:11:36;101364.69;;;17.93
70123;BMP280;57489;37.404;24.920;2023-02-15T05:16:37;101372.41;;;17.94
70123;BMP280;57489;37.404;24.920;2023-02-15T05:21:38;101382.38;;;18.18
70123;BMP280;57489;37.404;24.920;2023-02-15T05:26:38;101393.94;;;18.32
70123;BMP280;57489;37.404;24.920;2023-02-15T05:31:38;101392.56;;;18.40
70123;BMP280;57489;37.404;24.920;2023-02-15T05:36:39;101394.38;;;18.49
70123;BMP280;57489;37.404;24.920;2023-02-15T05:41:39;101398.97;;;18.39
70123;BMP280;57489;37.404;24.920;2023-02-15T05:46:40;101402.31;;;18.54
70123;BMP280;57489;37.404;24.920;2023-02-15T05:51:40;101408.25;;;18.41
70123;BMP280;57489;37.404;24.920;2023-02-15T05:56:41;101421.84;;;18.29
70123;BMP280;57489;37.404;24.920;2023-02-15T06:01:41;101412.06;;;18.20
70123;BMP280;57489;37.404;24.920;2023-02-15T06:06:42;101413.63;;;18.31
70123;BMP280;57489;37.404;24.920;2023-02-15T06:11:42;101414.59;;;18.45
70123;BMP280;57489;37.404;24.920;2023-02-15T06:16:43;101416.09;;;18.56
70123;BMP280;57489;37.404;24.920;2023-02-15T06:21:44;101430.72;;;18.59
70123;BMP280;57489;37.404;24.920;2023-02-15T06:26:44;101447.97;;;18.67
70123;BMP280;57489;37.404;24.920;2023-02-15T06:31:44;101431.69;;;18.68
70123;BMP280;57489;37.404;24.920;2023-02-15T06:36:45;101442.53;;;18.77
70123;BMP280;57489;37.404;24.920;2023-02-15T06:41:45;101433.47;;;18.78
70123;BMP280;57489;37.404;24.920;2023-02-15T06:46:46;101446.69;;;18.93
70123;BMP280;57489;37.404;24.920;2023-02-15T06:51:46;101442.09;;;18.99
70123;BMP280;57489;37.404;24.920;2023-02-15T06:56:47;101442.81;;;19.04
70123;BMP280;57489;37.404;24.920;2023-02-15T07:01:47;101451.34;;;19.06
70123;BMP280;57489;37.404;24.920;2023-02-15T07:06:48;101441.78;;;19.05
70123;BMP280;57489;37.404;24.920;2023-02-15T07:11:48;101444.91;;;19.13
70123;BMP280;57489;37.404;24.920;2023-02-15T07:16:49;101448.06;;;19.15
70123;BMP280;57489;37.404;24.920;2023-02-15T07:21:49;101461.34;;;19.20
70123;BMP280;57489;37.404;24.920;2023-02-15T07:26:50;101468.25;;;19.21
70123;BMP280;57489;37.404;24.920;2023-02-15T07:31:50;101464.25;;;19.18
70123;BMP280;57489;37.404;24.920;2023-02-15T07:36:51;101467.13;;;19.27
70123;BMP280;57489;37.404;24.920;2023-02-15T07:41:51;101482.03;;;19.23
70123;BMP280;57489;37.404;24.920;2023-02-15T07:46:52;101480.91;;;19.29
70123;BMP280;57489;37.404;24.920;2023-02-15T07:51:52;101484.63;;;19.33
70123;BMP280;57489;37.404;24.920;2023-02-15T07:56:52;101485.59;;;19.42
70123;BMP280;57489;37.404;24.920;2023-02-15T08:01:53;101493.75;;;19.51
70123;BMP280;57489;37.404;24.920;2023-02-15T08:06:54;101478.84;;;19.50
70123;BMP280;57489;37.404;24.920;2023-02-15T08:11:54;101484.59;;;19.62
70123;BMP280;57489;37.404;24.920;2023-02-15T08:16:55;101491.25;;;19.59
70123;BMP280;57489;37.404;24.920;2023-02-15T08:22:01;101505.66;;;19.58
70123;BMP280;57489;37.404;24.920;2023-02-15T08:27:02;101514.38;;;19.40
70123;BMP280;57489;37.404;24.920;2023-02-15T08:32:05;101511.38;;;19.47
70123;BMP280;57489;37.404;24.920;2023-02-15T08:37:06;101514.81;;;19.47
70123;BMP280;57489;37.404;24.920;2023-02-15T08:42:07;101517.38;;;19.57
70123;BMP280;57489;37.404;24.920;2023-02-15T08:47:07;101526.00;;;19.49
70123;BMP280;57489;37.404;24.920;2023-02-15T08:52:07;101519.91;;;19.68
70123;BMP280;57489;37.404;24.920;2023-02-15T08:57:08;101524.59;;;19.81
70123;BMP280;57489;37.404;24.920;2023-02-15T09:02:09;101517.72;;;19.75
70123;BMP280;57489;37.404;24.920;2023-02-15T09:07:10;101523.31;;;19.97
70123;BMP280;57489;37.404;24.920;2023-02-15T09:12:10;101541.13;;;19.78
70123;BMP280;57489;37.404;24.920;2023-02-15T09:17:11;101529.56;;;19.63
70123;BMP280;57489;37.404;24.920;2023-02-15T09:22:11;101526.97;;;19.58
70123;BMP280;57489;37.404;24.920;2023-02-15T09:27:12;101510.03;;;19.49
70123;BMP280;57489;37.404;24.920;2023-02-15T09:32:14;101510.09;;;19.44
70123;BMP280;57489;37.404;24.920;2023-02-15T09:37:14;101518.34;;;19.43
70123;BMP280;57489;37.404;24.920;2023-02-15T09:47:40;101534.50;;;19.46
70123;BMP280;57489;37.404;24.920;2023-02-15T10:20:49;101515.56;;;19.24
70123;BMP280;57489;37.404;24.920;2023-02-15T10:43:08;101496.63;;;19.54
70123;BMP280;57489;37.404;24.920;2023-02-15T10:58:49;101486.72;;;19.60
70123;BMP280;57489;37.404;24.920;2023-02-15T11:09:10;101469.50;;;19.76
70123;BMP280;57489;37.404;24.920;2023-02-15T11:14:20;101472.44;;;19.75
70123;BMP280;57489;37.404;24.920;2023-02-15T11:19:26;101481.72;;;19.77
70123;BMP280;57489;37.404;24.920;2023-02-15T11:24:30;101495.63;;;19.74
70123;BMP280;57489;37.404;24.920;2023-02-15T11:29:36;101483.69;;;19.72
70123;BMP280;57489;37.404;24.920;2023-02-15T11:34:44;101475.94;;;19.94
70123;BMP280;57489;37.404;24.920;2023-02-15T11:39:50;101469.97;;;19.83
70123;BMP280;57489;37.404;24.920;2023-02-15T11:45:34;101475.34;;;19.78
70123;BMP280;57489;37.404;24.920;2023-02-15T11:50:30;101474.06;;;19.76
70123;BMP280;57489;37.404;24.920;2023-02-15T11:55:31;101477.56;;;19.47
70123;BMP280;57489;37.404;24.920;2023-02-15T12:00:38;101478.91;;;19.69
70123;BMP280;57489;37.404;24.920;2023-02-15T12:05:42;101466.28;;;19.79
70123;BMP280;57489;37.404;24.920;2023-02-15T12:10:56;101470.22;;;19.82
70123;BMP280;57489;37.404;24.920;2023-02-15T12:15:59;101480.59;;;19.59
70123;BMP280;57489;37.404;24.920;2023-02-15T12:21:14;101478.00;;;19.54
70123;BMP280;57489;37.404;24.920;2023-02-15T12:26:15;101473.91;;;19.38
70123;BMP280;57489;37.404;24.920;2023-02-15T12:31:32;101472.56;;;19.64
70123;BMP280;57489;37.404;24.920;2023-02-15T12:36:42;101478.59;;;19.46
70123;BMP280;57489;37.404;24.920;2023-02-15T12:41:57;101482.13;;;19.18
70123;BMP280;57489;37.404;24.920;2023-02-15T12:47:26;101462.75;;;19.36
70123;BMP280;57489;37.404;24.920;2023-02-15T12:52:25;101471.34;;;19.28
70123;BMP280;57489;37.404;24.920;2023-02-15T12:57:33;101453.31;;;19.25
70123;BMP280;57489;37.404;24.920;2023-02-15T13:07:37;101477.56;;;19.71
70123;BMP280;57489;37.404;24.920;2023-02-15T13:12:37;101460.94;;;19.79
70123;BMP280;57489;37.404;24.920;2023-02-15T13:17:38;101460.09;;;19.84
70123;BMP280;57489;37.404;24.920;2023-02-15T13:22:41;101470.59;;;19.94
70123;BMP280;57489;37.404;24.920;2023-02-15T13:27:43;101484.13;;;19.79
70123;BMP280;57489;37.404;24.920;2023-02-15T13:32:45;101486.41;;;19.67
70123;BMP280;57489;37.404;24.920;2023-02-15T13:49:36;101499.34;;;19.97
70123;BMP280;57489;37.404;24.920;2023-02-15T13:55:16;101487.84;;;20.21
70123;BMP280;57489;37.404;24.920;2023-02-15T14:11:34;101489.66;;;20.44
70123;BMP280;57489;37.404;24.920;2023-02-15T14:27:08;101495.19;;;20.99
70123;BMP280;57489;37.404;24.920;2023-02-15T14:42:58;101498.56;;;21.18
70123;BMP280;57489;37.404;24.920;2023-02-15T14:48:41;101496.09;;;21.08
70123;BMP280;57489;37.404;24.920;2023-02-15T14:53:42;101488.66;;;21.05
70123;BMP280;57489;37.404;24.920;2023-02-15T15:03:55;101501.91;;;21.10
70123;BMP280;57489;37.404;24.920;2023-02-15T15:09:01;101499.25;;;21.10
70123;BMP280;57489;37.404;24.920;2023-02-15T15:14:36;101496.97;;;21.17
70123;BMP280;57489;37.404;24.920;2023-02-15T15:19:57;101506.22;;;21.25
70123;BMP280;57489;37.404;24.920;2023-02-15T15:25:10;101510.63;;;21.16
70123;BMP280;57489;37.404;24.920;2023-02-15T15:51:17;101548.22;;;21.19
70123;BMP280;57489;37.404;24.920;2023-02-15T15:56:31;101537.75;;;21.23
70123;BMP280;57489;37.404;24.920;2023-02-15T16:01:41;101530.59;;;21.18
70123;BMP280;57489;37.404;24.920;2023-02-15T16:06:42;101534.16;;;21.14
70123;BMP280;57489;37.404;24.920;2023-02-15T16:11:43;101533.97;;;21.10
70123;BMP280;57489;37.404;24.920;2023-02-15T16:16:51;101548.50;;;21.04
70123;BMP280;57489;37.404;24.920;2023-02-15T16:21:54;101537.88;;;20.99
70123;BMP280;57489;37.404;24.920;2023-02-15T16:27:37;101552.38;;;20.93
70123;BMP280;57489;37.404;24.920;2023-02-15T16:32:37;101542.22;;;20.95
70123;BMP280;57489;37.404;24.920;2023-02-15T16:37:38;101548.56;;;20.99
70123;BMP280;57489;37.404;24.920;2023-02-15T16:42:38;101537.22;;;21.07
70123;BMP280;57489;37.404;24.920;2023-02-15T16:47:45;101556.69;;;21.08
70123;BMP280;57489;37.404;24.920;2023-02-15T16:52:46;101565.19;;;21.10
70123;BMP280;57489;37.404;24.920;2023-02-15T16:57:47;101557.19;;;21.10
70123;BMP280;57489;37.404;24.920;2023-02-15T17:02:59;101568.75;;;21.05
70123;BMP280;57489;37.404;24.920;2023-02-15T17:08:06;101576.06;;;21.00
70123;BMP280;57489;37.404;24.920;2023-02-15T17:13:15;101569.41;;;20.97
70123;BMP280;57489;37.404;24.920;2023-02-15T17:18:20;101573.25;;;20.91
70123;BMP280;57489;37.404;24.920;2023-02-15T17:23:38;101589.53;;;20.89
70123;BMP280;57489;37.404;24.920;2023-02-15T17:28:51;101589.69;;;20.79
70123;BMP280;57489;37.404;24.920;2023-02-15T17:33:52;101583.94;;;20.53
70123;BMP280;57489;37.404;24.920;2023-02-15T17:39:19;101589.31;;;20.48
70123;BMP280;57489;37.404;24.920;2023-02-15T17:44:20;101591.78;;;20.45
70123;BMP280;57489;37.404;24.920;2023-02-15T17:49:25;101602.78;;;20.38
70123;BMP280;57489;37.404;24.920;2023-02-15T17:54:26;101598.78;;;20.59
70123;BMP280;57489;37.404;24.920;2023-02-15T17:59:27;101607.72;;;20.68
70123;BMP280;57489;37.404;24.920;2023-02-15T18:04:27;101601.38;;;20.64
70123;BMP280;57489;37.404;24.920;2023-02-15T18:09:27;101607.78;;;20.63
70123;BMP280;57489;37.404;24.920;2023-02-15T18:14:28;101609.66;;;20.63
70123;BMP280;57489;37.404;24.920;2023-02-15T18:19:28;101618.53;;;20.58
70123;BMP280;57489;37.404;24.920;2023-02-15T18:24:29;101620.16;;;20.54
70123;BMP280;57489;37.404;24.920;2023-02-15T18:29:29;101620.63;;;20.61
70123;BMP280;57489;37.404;24.920;2023-02-15T18:34:37;101629.50;;;20.76
70123;BMP280;57489;37.404;24.920;2023-02-15T18:39:41;101626.75;;;20.81
70123;BMP280;57489;37.404;24.920;2023-02-15T18:44:42;101627.19;;;20.88
70123;BMP280;57489;37.404;24.920;2023-02-15T18:49:42;101629.34;;;20.86
70123;BMP280;57489;37.404;24.920;2023-02-15T18:54:44;101624.81;;;20.86
70123;BMP280;57489;37.404;24.920;2023-02-15T18:59:46;101631.16;;;20.90
70123;BMP280;57489;37.404;24.920;2023-02-15T19:04:47;101632.63;;;20.83
70123;BMP280;57489;37.404;24.920;2023-02-15T19:09:50;101639.00;;;20.82
70123;BMP280;57489;37.404;24.920;2023-02-15T19:14:52;101651.78;;;20.85
70123;BMP280;57489;37.404;24.920;2023-02-15T19:19:52;101660.44;;;20.95
70123;BMP280;57489;37.404;24.920;2023-02-15T19:24:54;101641.94;;;21.04
70123;BMP280;57489;37.404;24.920;2023-02-15T19:29:57;101639.16;;;21.09
70123;BMP280;57489;37.404;24.920;2023-02-15T19:34:58;101646.66;;;21.07
70123;BMP280;57489;37.404;24.920;2023-02-15T19:39:59;101636.59;;;21.04
70123;BMP280;57489;37.404;24.920;2023-02-15T19:44:59;101639.44;;;21.08
70123;BMP280;57489;37.404;24.920;2023-02-15T19:50:00;101644.94;;;21.16
70123;BMP280;57489;37.404;24.920;2023-02-15T19:55:00;101650.28;;;21.30
70123;BMP280;57489;37.404;24.920;2023-02-15T20:00:01;101645.00;;;21.44
70123;BMP280;57489;37.404;24.920;2023-02-15T20:05:02;101643.75;;;21.55
70123;BMP280;57489;37.404;24.920;2023-02-15T20:10:03;101640.31;;;21.68
70123;BMP280;57489;37.404;24.920;2023-02-15T20:15:24;101646.66;;;21.72
70123;BMP280;57489;37.404;24.920;2023-02-15T20:20:30;101651.44;;;21.89
70123;BMP280;57489;37.404;24.920;2023-02-15T20:25:32;101648.56;;;21.99
70123;BMP280;57489;37.404;24.920;2023-02-15T20:30:32;101634.00;;;22.06
70123;BMP280;57489;37.404;24.920;2023-02-15T20:35:33;101645.09;;;21.85
70123;BMP280;57489;37.404;24.920;2023-02-15T20:40:34;101647.28;;;21.97
70123;BMP280;57489;37.404;24.920;2023-02-15T20:45:35;101636.28;;;21.85
70123;BMP280;57489;37.404;24.920;2023-02-15T20:50:35;101624.78;;;21.70
70123;BMP280;57489;37.404;24.920;2023-02-15T20:55:36;101635.75;;;21.83
70123;BMP280;57489;37.404;24.920;2023-02-15T21:00:36;101627.75;;;21.69
70123;BMP280;57489;37.404;24.920;2023-02-15T21:05:37;101636.53;;;21.56
70123;BMP280;57489;37.404;24.920;2023-02-15T21:10:37;101630.78;;;21.62
70123;BMP280;57489;37.404;24.920;2023-02-15T21:15:38;101636.00;;;21.40
70123;BMP280;57489;37.404;24.920;2023-02-15T21:20:46;101644.75;;;21.27
70123;BMP280;57489;37.404;24.920;2023-02-15T21:25:47;101636.66;;;21.32
70123;BMP280;57489;37.404;24.920;2023-02-15T21:30:48;101650.34;;;21.44
70123;BMP280;57489;37.404;24.920;2023-02-15T21:35:51;101636.81;;;21.21
70123;BMP280;57489;37.404;24.920;2023-02-15T21:40:52;101643.94;;;21.12
70123;BMP280;57489;37.404;24.920;2023-02-15T21:45:53;101638.72;;;21.02
70123;BMP280;57489;37.404;24.920;2023-02-15T21:50:54;101651.50;;;20.86
70123;BMP280;57489;37.404;24.920;2023-02-15T21:55:56;101641.25;;;20.75
70123;BMP280;57489;37.404;24.920;2023-02-15T22:00:58;101654.53;;;20.61
70123;BMP280;57489;37.404;24.920;2023-02-15T22:05:59;101648.16;;;20.57
70123;BMP280;57489;37.404;24.920;2023-02-15T22:10:59;101645.13;;;20.45
70123;BMP280;57489;37.404;24.920;2023-02-15T22:16:01;101665.53;;;20.30
70123;BMP280;57489;37.404;24.920;2023-02-15T22:21:02;101666.44;;;20.21
70123;BMP280;57489;37.404;24.920;2023-02-15T22:26:05;101665.44;;;20.11
70123;BMP280;57489;37.404;24.920;2023-02-15T22:31:12;101657.00;;;20.04
70123;BMP280;57489;37.404;24.920;2023-02-15T22:36:25;101656.34;;;19.94
70123;BMP280;57489;37.404;24.920;2023-02-15T22:41:28;101658.81;;;19.85
70123;BMP280;57489;37.404;24.920;2023-02-15T22:46:29;101651.94;;;19.79
70123;BMP280;57489;37.404;24.920;2023-02-15T22:51:29;101660.81;;;19.69
70123;BMP280;57489;37.404;24.920;2023-02-15T22:56:53;101669.16;;;19.57
70123;BMP280;57489;37.404;24.920;2023-02-15T23:01:55;101663.06;;;19.57
70123;BMP280;57489;37.404;24.920;2023-02-15T23:18:45;101656.19;;;19.46
70123;BMP280;57489;37.404;24.920;2023-02-15T23:23:50;101668.81;;;19.35
70123;BMP280;57489;37.404;24.920;2023-02-15T23:28:51;101669.63;;;19.30
70123;BMP280;57489;37.404;24.920;2023-02-15T23:33:52;101676.28;;;19.28
70123;BMP280;57489;37.404;24.920;2023-02-15T23:38:55;101680.09;;;19.17
70123;BMP280;57489;37.404;24.920;2023-02-15T23:43:58;101686.75;;;19.14
70123;BMP280;57489;37.404;24.920;2023-02-15T23:48:59;101698.75;;;19.11
70123;BMP280;57489;37.404;24.920;2023-02-15T23:54:00;101706.19;;;19.09
70123;BMP280;57489;37.404;24.920;2023-02-15T23:59:00;101707.31;;;19.03
